createdAt,value
2022-12-25T00:00:33.269Z,37.65
2022-12-25T00:02:59.819Z,42.05
2022-12-25T00:05:26.425Z,51.67
2022-12-25T00:07:52.957Z,47.67
2022-12-25T00:10:19.394Z,37.13
2022-12-25T00:12:45.902Z,45.53
2022-12-25T00:15:12.745Z,39.33
2022-12-25T00:17:39.251Z,46.08
2022-12-25T00:20:06.373Z,52.55
2022-12-25T00:22:32.915Z,52.30
2022-12-25T00:24:59.413Z,39.63
2022-12-25T00:27:25.955Z,40.97
2022-12-25T00:29:52.453Z,38.92
2022-12-25T00:32:19.940Z,43.88
2022-12-25T00:34:47.835Z,42.13
2022-12-25T00:37:14.344Z,42.22
2022-12-25T00:39:40.915Z,43.55
2022-12-25T00:42:19.728Z,38.47
2022-12-25T00:44:50.797Z,36.30
2022-12-25T00:47:18.069Z,34.93
2022-12-25T00:49:45.037Z,41.55
2022-12-25T00:52:11.529Z,43.20
2022-12-25T00:54:38.016Z,31.80
2022-12-25T00:57:04.514Z,39.10
2022-12-25T00:59:33.479Z,46.60
2022-12-25T01:02:29.256Z,37.63
2022-12-25T01:04:57.062Z,40.85
2022-12-25T01:07:26.380Z,38.75
2022-12-25T01:10:11.494Z,39.78
2022-12-25T01:12:41.320Z,28.10
2022-12-25T01:15:09.883Z,40.40
2022-12-25T01:17:36.771Z,35.38
2022-12-25T01:20:04.070Z,32.50
2022-12-25T01:22:30.652Z,38.55
2022-12-25T01:24:57.089Z,39.13
2022-12-25T01:27:24.098Z,33.08
2022-12-25T01:29:50.601Z,34.22
2022-12-25T01:32:17.097Z,36.83
2022-12-25T01:34:48.140Z,34.05
2022-12-25T01:37:17.023Z,34.83
2022-12-25T01:39:43.756Z,37.10
2022-12-25T01:42:17.619Z,28.25
2022-12-25T01:44:46.993Z,33.22
2022-12-25T01:47:15.195Z,37.45
2022-12-25T01:49:44.230Z,47.30
2022-12-25T01:52:21.750Z,33.92
2022-12-25T01:54:56.004Z,32.65
2022-12-25T01:57:28.631Z,33.67
2022-12-25T01:59:56.854Z,38.40
2022-12-25T02:02:23.814Z,36.73
2022-12-25T02:05:11.670Z,28.90
2022-12-25T02:07:41.187Z,38.72
2022-12-25T02:10:09.683Z,35.63
2022-12-25T02:12:37.655Z,31.45
2022-12-25T02:15:27.696Z,34.87
2022-12-25T02:18:25.188Z,37.28
2022-12-25T02:20:54.641Z,30.75
2022-12-25T02:24:02.951Z,31.13
2022-12-25T02:26:51.494Z,29.65
2022-12-25T02:29:39.197Z,28.77
2022-12-25T02:32:31.583Z,27.65
2022-12-25T02:35:03.041Z,30.05
2022-12-25T02:37:34.651Z,25.80
2022-12-25T02:40:20.856Z,24.63
2022-12-25T02:43:19.066Z,35.57
2022-12-25T02:46:11.574Z,30.67
2022-12-25T02:49:01.929Z,28.02
2022-12-25T02:51:51.066Z,31.50
2022-12-25T02:54:41.156Z,28.50
2022-12-25T02:57:29.474Z,33.33
2022-12-25T03:00:17.886Z,34.15
2022-12-25T03:03:04.446Z,31.65
2022-12-25T03:05:52.322Z,30.52
2022-12-25T03:08:22.675Z,27.92
2022-12-25T03:11:15.835Z,29.67
2022-12-25T03:13:45.041Z,35.53
2022-12-25T03:16:30.182Z,30.13
2022-12-25T03:18:58.195Z,32.97
2022-12-25T03:21:43.379Z,40.10
2022-12-25T03:24:28.679Z,34.00
2022-12-25T03:26:57.191Z,32.70
2022-12-25T03:29:51.501Z,34.42
2022-12-25T03:32:36.844Z,29.45
2022-12-25T03:35:25.668Z,41.97
2022-12-25T03:38:25.505Z,31.60
2022-12-25T03:41:30.197Z,31.50
2022-12-25T03:44:42.225Z,32.95
2022-12-25T03:47:25.489Z,27.50
2022-12-25T03:50:35.858Z,31.48
2022-12-25T03:53:26.204Z,34.20
2022-12-25T03:56:12.437Z,38.92
2022-12-25T03:59:11.848Z,39.05
2022-12-25T04:01:57.665Z,27.45
2022-12-25T04:04:42.944Z,34.30
2022-12-25T04:07:28.271Z,35.47
2022-12-25T04:10:13.819Z,30.83
2022-12-25T04:12:59.504Z,30.50
2022-12-25T04:15:44.945Z,28.23
2022-12-25T04:18:30.076Z,34.80
2022-12-25T04:21:14.855Z,34.37
2022-12-25T04:23:59.757Z,38.72
2022-12-25T04:26:45.109Z,43.17
2022-12-25T04:29:30.010Z,38.90
2022-12-25T04:32:14.827Z,33.78
2022-12-25T04:34:59.805Z,36.80
2022-12-25T04:37:26.285Z,37.92
2022-12-25T04:39:52.789Z,37.08
2022-12-25T04:42:19.318Z,40.38
2022-12-25T04:44:45.928Z,33.90
2022-12-25T04:47:12.879Z,37.67
2022-12-25T04:49:39.681Z,30.92
2022-12-25T04:52:06.352Z,34.85
2022-12-25T04:54:32.885Z,27.48
2022-12-25T04:56:59.358Z,29.45
2022-12-25T04:59:25.810Z,30.27
2022-12-25T05:01:52.356Z,26.50
2022-12-25T05:04:18.862Z,22.52
2022-12-25T05:06:45.355Z,29.45
2022-12-25T05:09:11.887Z,25.52
2022-12-25T05:11:38.315Z,26.47
2022-12-25T05:14:04.767Z,30.77
2022-12-25T05:16:31.443Z,21.95
2022-12-25T05:18:58.202Z,24.75
2022-12-25T05:21:24.687Z,28.92
2022-12-25T05:23:52.422Z,28.87
2022-12-25T05:26:24.803Z,21.63
2022-12-25T05:28:51.751Z,23.33
2022-12-25T05:31:18.876Z,25.27
2022-12-25T05:33:45.505Z,20.95
2022-12-25T05:36:12.531Z,20.20
2022-12-25T05:38:39.649Z,20.00
2022-12-25T05:41:06.243Z,25.23
2022-12-25T05:43:32.916Z,21.08
2022-12-25T05:46:05.490Z,25.50
2022-12-25T05:48:33.667Z,18.53
2022-12-25T05:51:08.355Z,24.50
2022-12-25T05:53:35.574Z,24.98
2022-12-25T05:56:04.140Z,22.33
2022-12-25T05:58:32.034Z,23.05
2022-12-25T06:00:59.109Z,24.17
2022-12-25T06:03:26.573Z,26.73
2022-12-25T06:05:53.254Z,20.00
2022-12-25T06:08:20.675Z,20.65
2022-12-25T06:10:47.623Z,18.15
2022-12-25T06:13:14.086Z,24.60
2022-12-25T06:15:41.817Z,19.40
2022-12-25T06:18:08.802Z,20.92
2022-12-25T06:20:35.582Z,17.65
2022-12-25T06:23:02.268Z,17.02
2022-12-25T06:25:28.758Z,18.23
2022-12-25T06:27:55.478Z,20.10
2022-12-25T06:30:21.991Z,16.75
2022-12-25T06:32:48.497Z,22.10
2022-12-25T06:35:15.133Z,17.77
2022-12-25T06:37:41.578Z,18.80
2022-12-25T06:40:08.533Z,18.27
2022-12-25T06:42:35.018Z,23.10
2022-12-25T06:45:01.530Z,23.40
2022-12-25T06:47:28.029Z,15.75
2022-12-25T06:49:54.483Z,17.73
2022-12-25T06:52:21.175Z,17.65
2022-12-25T06:54:47.662Z,19.70
2022-12-25T06:57:14.142Z,15.80
2022-12-25T06:59:40.654Z,18.05
2022-12-25T07:02:16.920Z,22.00
2022-12-25T07:04:43.527Z,15.18
2022-12-25T07:07:10.713Z,21.65
2022-12-25T07:09:39.101Z,16.60
2022-12-25T07:12:07.285Z,21.55
2022-12-25T07:14:34.233Z,16.97
2022-12-25T07:17:00.754Z,19.23
2022-12-25T07:19:27.431Z,19.70
2022-12-25T07:21:53.971Z,17.58
2022-12-25T07:24:22.060Z,16.30
2022-12-25T07:26:49.593Z,22.63
2022-12-25T07:29:16.410Z,21.42
2022-12-25T07:31:43.043Z,18.75
2022-12-25T07:34:09.565Z,25.25
2022-12-25T07:36:36.102Z,18.73
2022-12-25T07:39:02.717Z,20.13
2022-12-25T07:41:29.206Z,16.85
2022-12-25T07:44:12.925Z,19.90
2022-12-25T07:46:39.432Z,17.23
2022-12-25T07:49:06.011Z,16.58
2022-12-25T07:51:32.468Z,16.63
2022-12-25T07:53:58.963Z,17.05
2022-12-25T07:56:25.696Z,16.27
2022-12-25T07:58:52.262Z,15.35
2022-12-25T08:01:21.835Z,15.32
2022-12-25T08:03:53.647Z,19.93
2022-12-25T08:06:21.286Z,19.88
2022-12-25T08:08:47.978Z,14.90
2022-12-25T08:11:14.662Z,17.38
2022-12-25T08:13:41.322Z,15.60
2022-12-25T08:16:09.947Z,11.90
2022-12-25T08:18:37.780Z,13.77
2022-12-25T08:21:07.065Z,15.05
2022-12-25T08:23:35.203Z,14.18
2022-12-25T08:26:05.319Z,19.10
2022-12-25T08:28:33.463Z,19.20
2022-12-25T08:30:59.993Z,14.18
2022-12-25T08:33:26.629Z,17.27
2022-12-25T08:35:53.228Z,13.77
2022-12-25T08:38:19.726Z,15.13
2022-12-25T08:40:46.143Z,16.67
2022-12-25T08:43:12.643Z,17.40
2022-12-25T08:45:39.158Z,10.07
2022-12-25T08:48:05.893Z,14.48
2022-12-25T08:50:32.781Z,15.40
2022-12-25T08:52:59.314Z,16.83
2022-12-25T08:55:25.850Z,14.35
2022-12-25T08:57:53.302Z,20.52
2022-12-25T09:00:20.069Z,12.85
2022-12-25T09:02:46.716Z,14.82
2022-12-25T09:05:13.387Z,18.43
2022-12-25T09:07:39.926Z,11.32
2022-12-25T09:10:07.199Z,12.95
2022-12-25T09:12:33.747Z,14.52
2022-12-25T09:15:00.268Z,13.20
2022-12-25T09:17:26.723Z,11.10
2022-12-25T09:19:53.388Z,13.45
2022-12-25T09:22:19.919Z,15.90
2022-12-25T09:24:46.415Z,12.73
2022-12-25T09:27:13.251Z,10.00
2022-12-25T09:29:40.419Z,15.23
2022-12-25T09:32:07.162Z,13.25
2022-12-25T09:34:33.848Z,11.95
2022-12-25T09:37:01.068Z,11.13
2022-12-25T09:39:27.975Z,13.88
2022-12-25T09:42:22.475Z,11.17
2022-12-25T09:44:57.875Z,11.10
2022-12-25T09:47:27.908Z,12.25
2022-12-25T09:50:02.632Z,12.82
2022-12-25T09:52:48.312Z,10.48
2022-12-25T09:55:21.627Z,11.20
2022-12-25T09:58:00.450Z,12.40
2022-12-25T10:00:38.072Z,10.90
2022-12-25T10:03:26.581Z,15.57
2022-12-25T10:06:16.748Z,10.70
2022-12-25T10:08:52.368Z,14.50
2022-12-25T10:11:21.892Z,13.55
2022-12-25T10:13:57.493Z,15.60
2022-12-25T10:16:42.325Z,14.60
2022-12-25T10:19:26.760Z,13.50
2022-12-25T10:21:58.223Z,9.87
2022-12-25T10:24:35.934Z,14.70
2022-12-25T10:27:11.481Z,15.27
2022-12-25T10:29:39.663Z,15.77
2022-12-25T10:32:06.222Z,13.48
2022-12-25T10:34:33.002Z,17.53
2022-12-25T10:36:59.558Z,12.77
2022-12-25T10:39:26.433Z,12.73
2022-12-25T10:42:11.470Z,13.00
2022-12-25T10:44:38.033Z,15.40
2022-12-25T10:47:05.064Z,18.57
2022-12-25T10:49:37.903Z,16.05
2022-12-25T10:52:19.203Z,14.15
2022-12-25T10:54:45.748Z,13.60
2022-12-25T10:57:17.672Z,16.60
2022-12-25T10:59:56.772Z,16.33
2022-12-25T11:02:27.591Z,11.93
2022-12-25T11:05:06.183Z,17.45
2022-12-25T11:07:46.808Z,14.80
2022-12-25T11:10:24.898Z,16.65
2022-12-25T11:12:53.540Z,16.23
2022-12-25T11:15:29.004Z,13.57
2022-12-25T11:17:55.490Z,12.40
2022-12-25T11:20:22.588Z,17.05
2022-12-25T11:22:50.070Z,16.83
2022-12-25T11:25:25.490Z,11.80
2022-12-25T11:28:05.836Z,14.80
2022-12-25T11:30:33.614Z,17.23
2022-12-25T11:33:11.404Z,15.88
2022-12-25T11:35:47.792Z,16.65
2022-12-25T11:38:14.453Z,12.80
2022-12-25T11:40:48.655Z,15.90
2022-12-25T11:43:25.460Z,15.45
2022-12-25T11:46:03.352Z,15.65
2022-12-25T11:48:35.737Z,12.98
2022-12-25T11:51:05.674Z,17.43
2022-12-25T11:53:41.298Z,15.68
2022-12-25T11:56:29.225Z,15.45
2022-12-25T11:59:03.540Z,17.95
2022-12-25T12:01:50.666Z,17.90
2022-12-25T12:04:30.196Z,15.13
2022-12-25T12:07:20.262Z,15.40
2022-12-25T12:10:13.810Z,17.35
2022-12-25T12:13:11.381Z,17.00
2022-12-25T12:15:46.712Z,16.52
2022-12-25T12:18:22.400Z,20.73
2022-12-25T12:21:07.240Z,17.48
2022-12-25T12:23:50.274Z,16.90
2022-12-25T12:26:20.430Z,19.13
2022-12-25T12:28:48.988Z,16.73
2022-12-25T12:31:16.492Z,18.50
2022-12-25T12:33:51.107Z,21.50
2022-12-25T12:36:25.118Z,20.58
2022-12-25T12:39:01.577Z,16.50
2022-12-25T12:41:44.543Z,22.50
2022-12-25T12:44:11.588Z,18.90
2022-12-25T12:46:39.876Z,17.73
2022-12-25T12:49:32.182Z,16.20
2022-12-25T12:52:26.144Z,22.05
2022-12-25T12:54:59.041Z,16.75
2022-12-25T12:57:32.708Z,19.90
2022-12-25T13:00:04.726Z,22.15
2022-12-25T13:02:57.684Z,22.27
2022-12-25T13:05:42.158Z,21.33
2022-12-25T13:08:14.732Z,22.75
2022-12-25T13:10:48.833Z,22.07
2022-12-25T13:13:20.398Z,15.35
2022-12-25T13:15:49.606Z,19.05
2022-12-25T13:18:16.633Z,24.42
2022-12-25T13:20:59.374Z,26.58
2022-12-25T13:23:30.240Z,28.57
2022-12-25T13:25:59.600Z,25.88
2022-12-25T13:28:31.405Z,25.73
2022-12-25T13:31:07.269Z,28.23
2022-12-25T13:33:34.590Z,23.80
2022-12-25T13:36:01.339Z,27.63
2022-12-25T13:38:29.129Z,28.27
2022-12-25T13:41:15.973Z,26.40
2022-12-25T13:43:44.312Z,23.92
2022-12-25T13:46:15.426Z,20.67
2022-12-25T13:48:42.877Z,23.10
2022-12-25T13:51:15.898Z,22.00
2022-12-25T13:53:43.877Z,24.88
2022-12-25T13:56:15.808Z,26.52
2022-12-25T13:58:43.635Z,27.85
2022-12-25T14:01:12.540Z,28.70
2022-12-25T14:03:39.011Z,26.67
2022-12-25T14:06:18.983Z,24.30
2022-12-25T14:08:46.892Z,31.00
2022-12-25T14:11:20.433Z,26.77
2022-12-25T14:13:49.482Z,30.43
2022-12-25T14:16:18.428Z,28.95
2022-12-25T14:18:53.669Z,27.38
2022-12-25T14:21:40.816Z,27.73
2022-12-25T14:24:15.305Z,31.38
2022-12-25T14:26:42.159Z,28.27
2022-12-25T14:29:18.096Z,27.15
2022-12-25T14:31:47.176Z,28.55
2022-12-25T14:34:18.524Z,30.15
2022-12-25T14:36:45.407Z,30.58
2022-12-25T14:39:32.184Z,31.43
2022-12-25T14:41:58.978Z,36.08
2022-12-25T14:44:41.296Z,29.67
2022-12-25T14:47:10.714Z,32.20
2022-12-25T14:49:37.805Z,27.20
2022-12-25T14:52:30.943Z,37.87
2022-12-25T14:55:03.652Z,31.00
2022-12-25T14:57:40.925Z,43.75
2022-12-25T15:00:29.600Z,40.88
2022-12-25T15:02:58.277Z,35.35
2022-12-25T15:05:39.308Z,38.60
2022-12-25T15:08:19.693Z,45.13
2022-12-25T15:10:59.597Z,43.63
2022-12-25T15:13:28.780Z,35.45
2022-12-25T15:16:04.153Z,38.25
2022-12-25T15:18:36.554Z,33.63
2022-12-25T15:21:03.160Z,34.38
2022-12-25T15:23:29.742Z,33.15
2022-12-25T15:25:56.349Z,37.22
2022-12-25T15:28:22.883Z,36.42
2022-12-25T15:30:50.014Z,36.77
2022-12-25T15:33:18.818Z,42.05
2022-12-25T15:35:45.897Z,43.45
2022-12-25T15:38:14.699Z,37.50
2022-12-25T15:40:41.961Z,39.10
2022-12-25T15:43:38.966Z,34.10
2022-12-25T15:46:03.130Z,33.58
2022-12-25T15:48:29.665Z,39.45
2022-12-25T15:50:56.137Z,34.58
2022-12-25T15:53:22.717Z,33.92
2022-12-25T15:55:49.337Z,36.73
2022-12-25T15:58:15.782Z,35.75
2022-12-25T16:00:42.279Z,37.50
2022-12-25T16:03:08.897Z,37.58
2022-12-25T16:05:35.609Z,38.60
2022-12-25T16:08:02.071Z,38.60
2022-12-25T16:10:33.412Z,40.20
2022-12-25T16:13:03.288Z,39.53
2022-12-25T16:15:29.907Z,36.90
2022-12-25T16:17:56.768Z,32.47
2022-12-25T16:20:23.241Z,36.47
2022-12-25T16:22:49.780Z,29.92
2022-12-25T16:25:18.556Z,35.83
2022-12-25T16:27:45.579Z,36.53
2022-12-25T16:30:14.897Z,35.83
2022-12-25T16:32:42.298Z,40.73
2022-12-25T16:35:10.575Z,37.58
2022-12-25T16:37:37.554Z,37.72
2022-12-25T16:40:04.181Z,42.50
2022-12-25T16:42:30.703Z,44.38
2022-12-25T16:44:57.211Z,42.90
2022-12-25T16:47:23.775Z,49.90
2022-12-25T16:49:50.314Z,40.40
2022-12-25T16:52:16.782Z,36.65
2022-12-25T16:54:46.369Z,38.15
2022-12-25T16:57:13.882Z,48.37
2022-12-25T16:59:41.497Z,46.80
2022-12-25T17:02:16.541Z,44.92
2022-12-25T17:04:46.491Z,51.95
2022-12-25T17:07:14.181Z,44.58
2022-12-25T17:09:44.389Z,34.83
2022-12-25T17:12:11.335Z,35.53
2022-12-25T17:14:38.139Z,44.70
2022-12-25T17:17:04.757Z,43.45
2022-12-25T17:19:33.561Z,41.67
2022-12-25T17:22:00.098Z,49.27
2022-12-25T17:24:29.890Z,36.38
2022-12-25T17:26:56.509Z,64.90
2022-12-25T17:29:24.627Z,50.42
2022-12-25T17:31:51.444Z,43.63
2022-12-25T17:34:18.305Z,44.27
2022-12-25T17:36:44.957Z,53.42
2022-12-25T17:39:14.355Z,45.13
2022-12-25T17:41:40.884Z,37.63
2022-12-25T17:44:07.484Z,40.92
2022-12-25T17:46:34.050Z,40.33
2022-12-25T17:49:01.319Z,39.78
2022-12-25T17:51:30.077Z,41.42
2022-12-25T17:53:59.485Z,59.55
2022-12-25T17:56:26.730Z,57.78
2022-12-25T17:58:55.844Z,64.47
2022-12-25T18:01:24.180Z,51.03
2022-12-25T18:03:53.527Z,55.72
2022-12-25T18:06:23.606Z,55.70
2022-12-25T18:08:50.095Z,63.80
2022-12-25T18:11:20.427Z,66.00
2022-12-25T18:13:49.913Z,71.55
2022-12-25T18:16:17.369Z,73.47
2022-12-25T18:18:51.402Z,79.90
2022-12-25T18:21:19.108Z,75.10
2022-12-25T18:23:46.279Z,72.47
2022-12-25T18:26:13.005Z,81.28
2022-12-25T18:28:42.303Z,82.40
2022-12-25T18:31:16.779Z,79.28
2022-12-25T18:33:44.533Z,101.70
2022-12-25T18:36:13.548Z,70.50
2022-12-25T18:38:40.407Z,89.35
2022-12-25T18:41:08.868Z,90.13
2022-12-25T18:43:52.683Z,75.78
2022-12-25T18:46:26.367Z,81.25
2022-12-25T18:48:54.834Z,116.80
2022-12-25T18:51:24.413Z,88.70
2022-12-25T18:53:51.485Z,70.28
2022-12-25T18:56:21.274Z,84.15
2022-12-25T18:58:48.493Z,73.40
2022-12-25T19:01:19.074Z,76.47
2022-12-25T19:03:48.842Z,98.25
2022-12-25T19:06:24.023Z,76.45
2022-12-25T19:08:50.648Z,65.30
2022-12-25T19:11:18.376Z,87.28
2022-12-25T19:13:45.010Z,101.13
2022-12-25T19:16:12.093Z,85.70
2022-12-25T19:18:39.929Z,83.40
2022-12-25T19:21:09.234Z,98.15
2022-12-25T19:23:38.619Z,79.72
2022-12-25T19:26:09.641Z,73.97
2022-12-25T19:28:37.764Z,74.18
2022-12-25T19:31:07.440Z,73.88
2022-12-25T19:33:37.341Z,78.22
2022-12-25T19:36:10.397Z,65.68
2022-12-25T19:38:39.039Z,64.57
2022-12-25T19:41:10.204Z,72.00
2022-12-25T19:43:39.188Z,63.25
2022-12-25T19:46:06.690Z,61.72
2022-12-25T19:48:34.295Z,62.70
2022-12-25T19:51:01.030Z,61.33
2022-12-25T19:53:29.266Z,88.07
2022-12-25T19:56:02.313Z,74.40
2022-12-25T19:58:29.883Z,63.05
2022-12-25T20:01:01.777Z,67.10
2022-12-25T20:03:28.422Z,74.83
2022-12-25T20:05:55.072Z,76.35
2022-12-25T20:08:21.717Z,66.43
2022-12-25T20:10:49.190Z,75.45
2022-12-25T20:13:16.006Z,77.97
2022-12-25T20:15:42.465Z,85.17
2022-12-25T20:18:08.982Z,75.50
2022-12-25T20:20:35.618Z,81.00
2022-12-25T20:23:02.098Z,80.03
2022-12-25T20:25:28.644Z,73.78
2022-12-25T20:27:58.189Z,92.67
2022-12-25T20:30:24.688Z,77.97
2022-12-25T20:32:51.197Z,86.55
2022-12-25T20:35:17.820Z,100.97
2022-12-25T20:37:46.649Z,91.13
2022-12-25T20:40:13.280Z,110.97
2022-12-25T20:42:39.776Z,104.10
2022-12-25T20:45:07.819Z,99.15
2022-12-25T20:47:35.019Z,102.00
2022-12-25T20:50:01.569Z,117.47
2022-12-25T20:52:28.331Z,91.10
2022-12-25T20:54:54.882Z,112.65
2022-12-25T20:57:21.451Z,112.90
2022-12-25T20:59:47.978Z,108.32
2022-12-25T21:02:33.456Z,81.43
2022-12-25T21:05:01.222Z,84.40
2022-12-25T21:07:27.767Z,83.93
2022-12-25T21:09:54.417Z,84.45
2022-12-25T21:12:20.898Z,127.47
2022-12-25T21:14:47.388Z,137.27
2022-12-25T21:17:13.944Z,102.47
2022-12-25T21:19:40.503Z,97.35
2022-12-25T21:22:07.112Z,93.20
2022-12-25T21:24:33.640Z,128.70
2022-12-25T21:27:00.214Z,120.07
2022-12-25T21:29:26.871Z,106.30
2022-12-25T21:32:12.405Z,77.32
2022-12-25T21:34:39.759Z,80.75
2022-12-25T21:37:06.331Z,88.93
2022-12-25T21:39:33.077Z,79.82
2022-12-25T21:41:59.709Z,76.60
2022-12-25T21:44:26.295Z,78.25
2022-12-25T21:46:53.197Z,73.38
2022-12-25T21:49:39.510Z,73.80
2022-12-25T21:52:08.681Z,68.35
2022-12-25T21:54:35.807Z,61.73
2022-12-25T21:57:02.397Z,66.53
2022-12-25T21:59:28.920Z,65.32
2022-12-25T22:01:55.476Z,56.38
2022-12-25T22:04:22.958Z,59.95
2022-12-25T22:07:08.396Z,59.97
2022-12-25T22:09:35.105Z,66.00
2022-12-25T22:12:20.860Z,69.20
2022-12-25T22:14:54.204Z,57.28
2022-12-25T22:17:49.960Z,48.72
2022-12-25T22:20:21.642Z,58.33
2022-12-25T22:22:48.338Z,53.28
2022-12-25T22:25:16.121Z,53.45
2022-12-25T22:27:44.235Z,51.15
2022-12-25T22:30:13.973Z,59.65
2022-12-25T22:32:40.529Z,49.73
2022-12-25T22:35:07.549Z,53.67
2022-12-25T22:37:34.255Z,47.85
2022-12-25T22:40:02.896Z,47.85
2022-12-25T22:42:29.754Z,50.30
2022-12-25T22:44:56.253Z,48.33
2022-12-25T22:47:23.564Z,52.67
2022-12-25T22:49:50.087Z,53.53
2022-12-25T22:52:16.727Z,44.65
2022-12-25T22:54:43.241Z,42.42
2022-12-25T22:57:09.772Z,43.03
2022-12-25T22:59:36.384Z,49.47
2022-12-25T23:02:03.033Z,40.33
2022-12-25T23:04:29.671Z,43.78
2022-12-25T23:06:56.694Z,40.90
2022-12-25T23:09:27.990Z,46.10
2022-12-25T23:11:56.580Z,40.50
2022-12-25T23:14:39.321Z,37.15
2022-12-25T23:17:31.557Z,42.55
2022-12-25T23:20:18.297Z,37.30
2022-12-25T23:23:05.355Z,39.43
2022-12-25T23:25:52.946Z,40.30
2022-12-25T23:28:40.267Z,41.30
2022-12-25T23:31:07.067Z,36.03
2022-12-25T23:33:33.865Z,41.47
2022-12-25T23:36:00.338Z,42.93
2022-12-25T23:38:26.817Z,41.05
2022-12-25T23:40:53.447Z,40.58
2022-12-25T23:43:20.086Z,39.15
2022-12-25T23:45:46.619Z,45.83
2022-12-25T23:48:13.047Z,41.27
2022-12-25T23:50:39.560Z,49.42
2022-12-25T23:53:06.103Z,43.97
2022-12-25T23:55:33.711Z,41.88
2022-12-25T23:58:01.123Z,40.50
